createdAt,value
2018-11-22T00:14:35.478Z,102440.58
2018-11-22T00:17:41.335Z,102436.67
2018-11-22T00:20:46.762Z,102446.97
2018-11-22T00:23:52.196Z,102441.84
2018-11-22T00:27:16.629Z,102438.87
2018-11-22T00:38:11.040Z,102442.36
2018-11-22T01:12:41.147Z,102438.50
2018-11-22T01:28:06.446Z,102436.63
2018-11-22T01:35:59.527Z,102436.60
2018-11-22T01:46:59.981Z,102432.81
2018-11-22T01:58:28.137Z,102439.00
2018-11-22T02:01:45.936Z,102435.81
2018-11-22T02:05:15.101Z,102437.48
2018-11-22T02:20:01.399Z,102437.55
2018-11-22T02:34:59.743Z,102424.84
2018-11-22T02:38:05.123Z,102432.81
2018-11-22T02:41:10.474Z,102435.94
2018-11-22T03:39:01.984Z,102423.83
2018-11-22T03:42:07.386Z,102425.77
2018-11-22T04:24:43.125Z,102400.94
2018-11-22T04:28:25.994Z,102409.77
2018-11-22T04:35:58.007Z,102412.66
2018-11-22T04:54:08.158Z,102402.73
2018-11-22T04:57:13.545Z,102402.30
2018-11-22T05:00:20.133Z,102400.46
2018-11-22T05:03:25.607Z,102401.45
2018-11-22T05:06:30.986Z,102403.58
2018-11-22T05:13:41.794Z,102406.21
2018-11-22T05:37:34.681Z,102386.95
2018-11-22T05:48:30.964Z,102384.02
2018-11-22T05:56:00.511Z,102379.64
2018-11-22T06:26:57.907Z,102394.52
2018-11-22T06:30:03.274Z,102394.14
2018-11-22T06:33:08.627Z,102391.90
2018-11-22T06:36:14.005Z,102403.88
2018-11-22T06:48:18.381Z,102406.56
2018-11-22T06:51:23.761Z,102406.48
2018-11-22T06:54:29.167Z,102405.19
2018-11-22T06:57:34.511Z,102411.93
2018-11-22T07:00:39.884Z,102415.09
2018-11-22T07:03:45.238Z,102411.65
2018-11-22T07:06:50.607Z,102412.13
2018-11-22T07:09:56.028Z,102406.51
2018-11-22T07:13:01.979Z,102405.22
2018-11-22T07:24:34.226Z,102415.84
2018-11-22T07:35:56.787Z,102417.61
2018-11-22T07:39:08.814Z,102415.95
2018-11-22T07:42:16.986Z,102411.47
2018-11-22T07:45:28.338Z,102417.77
2018-11-22T07:48:37.019Z,102415.33
2018-11-22T07:51:42.384Z,102412.02
2018-11-22T07:54:56.201Z,102421.34
2018-11-22T07:58:03.925Z,102422.29
2018-11-22T08:01:19.983Z,102420.16
2018-11-22T08:04:32.252Z,102419.70
2018-11-22T08:07:46.714Z,102422.63
2018-11-22T08:11:07.549Z,102424.49
2018-11-22T08:15:06.897Z,102424.52
2018-11-22T08:19:47.329Z,102425.95
2018-11-22T08:23:10.329Z,102419.52
2018-11-22T08:26:40.930Z,102425.72
2018-11-22T08:29:51.070Z,102423.89
2018-11-22T08:33:24.063Z,102428.26
2018-11-22T08:36:57.844Z,102433.27
2018-11-22T08:40:59.371Z,102441.53
2018-11-22T08:44:11.901Z,102438.22
2018-11-22T08:47:28.841Z,102439.53
2018-11-22T08:51:21.493Z,102436.14
2018-11-22T09:04:01.197Z,102437.05
2018-11-22T09:07:34.263Z,102441.77
2018-11-22T09:10:43.787Z,102438.25
2018-11-22T09:14:04.249Z,102440.30
2018-11-22T09:17:13.752Z,102448.55
2018-11-22T09:20:27.461Z,102448.44
2018-11-22T09:23:54.857Z,102446.05
2018-11-22T09:27:10.228Z,102450.49
2018-11-22T09:31:19.095Z,102457.55
2018-11-22T09:34:38.204Z,102454.06
2018-11-22T09:38:33.907Z,102451.86
2018-11-22T09:41:49.398Z,102455.81
2018-11-22T09:45:10.730Z,102455.75
2018-11-22T09:48:49.797Z,102460.86
2018-11-22T09:52:26.027Z,102457.46
2018-11-22T09:55:48.341Z,102454.55
2018-11-22T09:59:16.632Z,102453.85
2018-11-22T10:03:12.931Z,102447.49
2018-11-22T10:06:44.169Z,102444.55
2018-11-22T10:09:52.586Z,102445.19
2018-11-22T10:13:04.836Z,102443.13
2018-11-22T10:16:11.779Z,102449.09
2018-11-22T10:19:20.424Z,102439.65
2018-11-22T10:23:00.404Z,102433.70
2018-11-22T10:26:23.041Z,102434.71
2018-11-22T10:29:53.134Z,102427.95
2018-11-22T10:33:37.835Z,102423.34
2018-11-22T10:36:58.901Z,102431.22
2018-11-22T10:40:57.018Z,102425.17
2018-11-22T10:44:20.024Z,102428.05
2018-11-22T10:47:57.898Z,102429.17
2018-11-22T10:51:20.944Z,102428.26
2018-11-22T10:59:38.519Z,102430.55
2018-11-22T11:03:27.114Z,102421.80
2018-11-22T11:07:12.515Z,102411.86
2018-11-22T11:11:03.930Z,102426.86
2018-11-22T11:14:49.668Z,102424.36
2018-11-22T11:18:02.515Z,102418.20
2018-11-22T11:22:03.162Z,102408.27
2018-11-22T11:26:26.873Z,102410.58
2018-11-22T11:30:46.045Z,102405.28
2018-11-22T11:34:16.474Z,102407.53
2018-11-22T11:54:44.371Z,102387.40
2018-11-22T12:02:45.802Z,102381.61
2018-11-22T12:06:41.937Z,102380.59
2018-11-22T12:10:25.459Z,102373.06
2018-11-22T12:14:33.857Z,102373.22
2018-11-22T12:18:21.258Z,102371.09
2018-11-22T12:21:42.580Z,102368.97
2018-11-22T12:26:05.417Z,102364.57
2018-11-22T12:29:41.676Z,102373.18
2018-11-22T12:33:49.753Z,102369.15
2018-11-22T12:41:47.081Z,102360.89
2018-11-22T12:45:24.444Z,102357.80
2018-11-22T12:53:48.430Z,102353.11
2018-11-22T12:57:54.335Z,102345.60
2018-11-22T13:00:35.994Z,102347.41
2018-11-22T13:04:22.883Z,102342.67
2018-11-22T13:08:04.996Z,102350.77
2018-11-22T13:12:04.192Z,102346.08
2018-11-22T13:16:43.959Z,102348.66
2018-11-22T13:20:34.977Z,102348.28
2018-11-22T13:35:02.080Z,102349.26
2018-11-22T13:44:50.758Z,102339.17
2018-11-22T13:48:23.030Z,102342.66
2018-11-22T13:52:24.721Z,102340.16
2018-11-22T13:56:07.695Z,102337.03
2018-11-22T13:59:37.364Z,102334.25
2018-11-22T14:13:36.756Z,102331.67
2018-11-22T14:17:24.787Z,102335.15
2018-11-22T14:22:07.053Z,102335.11
2018-11-22T14:25:16.785Z,102330.20
2018-11-22T14:28:22.261Z,102327.80
2018-11-22T14:31:27.736Z,102328.59
2018-11-22T14:34:34.401Z,102325.58
2018-11-22T14:37:40.235Z,102329.29
2018-11-22T14:40:45.810Z,102325.30
2018-11-22T14:43:51.491Z,102323.30
2018-11-22T14:46:56.912Z,102326.00
2018-11-22T14:50:02.377Z,102318.76
2018-11-22T14:53:13.667Z,102314.27
2018-11-22T14:56:19.167Z,102318.16
2018-11-22T14:59:24.711Z,102323.51
2018-11-22T15:02:32.095Z,102320.47
2018-11-22T15:05:37.672Z,102314.83
2018-11-22T15:08:43.068Z,102318.59
2018-11-22T15:11:48.716Z,102324.05
2018-11-22T15:14:54.251Z,102316.58
2018-11-22T15:17:59.738Z,102318.77
2018-11-22T15:21:05.690Z,102324.09
2018-11-22T15:24:12.835Z,102323.28
2018-11-22T15:27:18.420Z,102326.85
2018-11-22T15:30:25.248Z,102334.13
2018-11-22T15:33:31.086Z,102327.69
2018-11-22T15:36:36.666Z,102333.55
2018-11-22T15:39:42.935Z,102332.70
2018-11-22T15:42:51.656Z,102330.59
2018-11-22T15:45:57.263Z,102333.28
2018-11-22T15:49:04.231Z,102334.63
2018-11-22T15:52:10.338Z,102339.34
2018-11-22T15:55:20.965Z,102338.99
2018-11-22T15:58:22.295Z,102333.71
2018-11-22T16:01:39.455Z,102342.30
2018-11-22T16:04:44.883Z,102334.09
2018-11-22T16:07:51.845Z,102333.61
2018-11-22T16:10:57.228Z,102337.06
2018-11-22T16:14:04.835Z,102334.87
2018-11-22T16:17:10.619Z,102343.11
2018-11-22T16:20:16.015Z,102342.98
2018-11-22T16:23:21.655Z,102344.77
2018-11-22T16:26:28.238Z,102348.33
2018-11-22T16:29:33.639Z,102347.45
2018-11-22T16:32:39.088Z,102346.66
2018-11-22T16:35:44.485Z,102339.61
2018-11-22T16:38:50.499Z,102352.34
2018-11-22T16:41:55.895Z,102345.55
2018-11-22T16:45:02.040Z,102343.81
2018-11-22T16:48:09.615Z,102338.64
2018-11-22T16:51:14.995Z,102330.80
2018-11-22T16:54:20.711Z,102336.88
2018-11-22T16:57:37.755Z,102332.77
2018-11-22T17:00:43.140Z,102328.41
2018-11-22T17:03:52.281Z,102330.05
2018-11-22T17:06:59.871Z,102327.64
2018-11-22T17:10:06.340Z,102332.73
2018-11-22T17:13:12.173Z,102330.07
2018-11-22T17:16:17.570Z,102333.14
2018-11-22T17:19:23.450Z,102332.83
2018-11-22T17:22:28.869Z,102337.59
2018-11-22T17:25:35.177Z,102340.62
2018-11-22T17:28:40.547Z,102333.32
2018-11-22T17:31:45.935Z,102331.49
2018-11-22T17:34:52.101Z,102326.84
2018-11-22T17:37:59.071Z,102336.28
2018-11-22T17:41:04.740Z,102332.76
2018-11-22T17:44:10.228Z,102333.55
2018-11-22T17:47:15.739Z,102342.27
2018-11-22T17:50:27.175Z,102342.69
2018-11-22T17:53:32.575Z,102335.77
2018-11-22T17:56:38.020Z,102335.73
2018-11-22T17:59:43.408Z,102349.02
2018-11-22T18:02:50.134Z,102340.42
2018-11-22T18:05:55.519Z,102334.89
2018-11-22T18:09:01.144Z,102343.85
2018-11-22T18:12:06.727Z,102351.66
2018-11-22T18:15:13.586Z,102348.98
2018-11-22T18:18:18.967Z,102350.19
2018-11-22T18:21:25.208Z,102343.28
2018-11-22T18:24:30.638Z,102347.42
2018-11-22T18:27:36.316Z,102353.86
2018-11-22T18:30:41.827Z,102363.05
2018-11-22T18:33:47.179Z,102358.87
2018-11-22T18:36:52.579Z,102359.63
2018-11-22T18:39:57.984Z,102347.34
2018-11-22T18:43:04.034Z,102355.30
2018-11-22T18:46:09.402Z,102356.56
2018-11-22T18:49:14.771Z,102355.61
2018-11-22T18:52:20.143Z,102358.22
2018-11-22T18:55:25.483Z,102353.41
2018-11-22T18:58:30.859Z,102354.38
2018-11-22T19:01:36.288Z,102360.52
2018-11-22T19:04:41.647Z,102352.66
2018-11-22T19:07:48.104Z,102346.53
2018-11-22T19:10:53.447Z,102344.31
2018-11-22T19:13:58.816Z,102347.11
2018-11-22T19:17:04.188Z,102351.06
2018-11-22T19:20:21.516Z,102350.14
2018-11-22T19:23:26.961Z,102346.48
2018-11-22T19:26:32.310Z,102340.94
2018-11-22T19:29:37.700Z,102346.98
2018-11-22T19:32:43.844Z,102348.30
2018-11-22T19:35:51.070Z,102341.87
2018-11-22T19:38:56.440Z,102339.17
2018-11-22T19:42:01.835Z,102343.03
2018-11-22T19:45:09.950Z,102342.20
2018-11-22T19:48:15.728Z,102340.92
2018-11-22T19:51:21.071Z,102344.42
2018-11-22T19:54:26.459Z,102337.92
2018-11-22T19:57:31.867Z,102336.78
2018-11-22T20:00:37.829Z,102335.59
2018-11-22T20:03:43.196Z,102334.34
2018-11-22T20:06:48.923Z,102335.97
2018-11-22T20:09:54.285Z,102329.20
2018-11-22T20:12:59.687Z,102339.81
2018-11-22T20:16:05.058Z,102333.23
2018-11-22T20:19:10.426Z,102341.73
2018-11-22T20:22:15.903Z,102345.55
2018-11-22T20:25:21.495Z,102343.19
2018-11-22T20:28:26.863Z,102350.73
2018-11-22T20:31:32.219Z,102347.34
2018-11-22T20:34:37.593Z,102344.86
2018-11-22T20:37:43.663Z,102335.78
2018-11-22T20:40:49.085Z,102344.12
2018-11-22T20:43:54.456Z,102341.50
2018-11-22T20:46:59.867Z,102344.92
2018-11-22T20:50:06.832Z,102339.41
2018-11-22T20:53:12.180Z,102339.17
2018-11-22T20:56:17.544Z,102343.52
2018-11-22T20:59:22.955Z,102339.07
2018-11-22T21:02:28.702Z,102344.61
2018-11-22T21:05:35.053Z,102339.23
2018-11-22T21:08:39.442Z,102336.50
2018-11-22T21:11:45.335Z,102339.10
2018-11-22T21:14:50.700Z,102339.90
2018-11-22T21:17:58.090Z,102344.98
2018-11-22T21:21:03.466Z,102340.73
2018-11-22T21:24:08.844Z,102344.66
2018-11-22T21:27:14.222Z,102342.38
2018-11-22T21:30:22.840Z,102346.86
2018-11-22T21:33:28.193Z,102335.97
2018-11-22T21:36:33.564Z,102339.73
2018-11-22T21:39:39.310Z,102337.88
2018-11-22T21:42:44.686Z,102336.53
2018-11-22T21:45:50.048Z,102338.02
2018-11-22T21:48:55.399Z,102342.66
2018-11-22T21:52:00.777Z,102340.97
2018-11-22T21:55:09.168Z,102342.36
2018-11-22T21:58:14.618Z,102338.87
2018-11-22T22:01:31.855Z,102339.02
2018-11-22T22:04:37.273Z,102341.35
2018-11-22T22:07:42.922Z,102332.09
2018-11-22T22:10:48.619Z,102323.31
2018-11-22T22:13:54.173Z,102326.13
2018-11-22T22:17:00.835Z,102328.55
2018-11-22T22:20:09.481Z,102333.50
2018-11-22T22:23:15.040Z,102333.19
2018-11-22T22:26:20.532Z,102332.11
2018-11-22T22:29:26.154Z,102325.23
2018-11-22T22:32:31.708Z,102317.53
2018-11-22T22:35:37.401Z,102318.09
2018-11-22T22:38:42.980Z,102318.02
2018-11-22T22:41:48.678Z,102322.70
2018-11-22T22:44:54.267Z,102320.27
2018-11-22T22:47:59.794Z,102323.39
2018-11-22T22:51:05.759Z,102322.58
2018-11-22T22:54:11.351Z,102328.05
2018-11-22T22:57:16.910Z,102327.67
2018-11-22T23:00:29.028Z,102330.77
2018-11-22T23:03:34.588Z,102339.55
2018-11-22T23:06:40.112Z,102335.37
2018-11-22T23:09:45.497Z,102333.88
2018-11-22T23:12:50.939Z,102333.22
2018-11-22T23:15:56.338Z,102325.53
2018-11-22T23:19:01.746Z,102329.36
2018-11-22T23:22:07.208Z,102329.89
2018-11-22T23:25:13.392Z,102336.19
2018-11-22T23:28:18.860Z,102331.45
2018-11-22T23:31:24.339Z,102327.78
2018-11-22T23:34:29.871Z,102329.92
2018-11-22T23:37:35.405Z,102323.20
2018-11-22T23:40:40.789Z,102329.71
2018-11-22T23:43:46.183Z,102322.43
2018-11-22T23:46:51.558Z,102329.77
2018-11-22T23:49:56.907Z,102326.28
2018-11-22T23:53:03.524Z,102331.23
2018-11-22T23:56:09.032Z,102320.34
2018-11-22T23:59:14.489Z,102319.33
